BCC731 EGPH-EGGD
Flight info
| Callsign | BCC731 |
|---|---|
| Flight time | 0h 53m |
| Altitude | 33000 |
| Route | GOSAM P600 FENIK L612 NAVSO DCT ADZOP DCT EGTOC DCT NOKIN N862 KARNO/N0444F320 DCT ALHUP DCT LUCSA/N0400F230 N862 WEVBE |
| Aircraft | A320/M-SDE3FGHIRWY/LB1 |
Departure
| Time | 2026-04-25 19:41 |
|---|---|
| Airport | Edinburgh Airport (EGPH) |
Arrival
| Time | 2026-04-25 20:34 |
|---|---|
| Airport | Bristol Airport (EGGD) |
| Time | Latitude | Longitude | Altitude | Speed | Heading |
|---|---|---|---|---|---|
| 2026-04-25 19:20 | 55.94703 | -3.36604 | 107 ft | 0 kts | 89° |
| 2026-04-25 19:32 | 55.94703 | -3.36605 | 107 ft | 0 kts | 89° |
| 2026-04-25 19:32 | 55.94703 | -3.36604 | 107 ft | 0 kts | 89° |
| 2026-04-25 19:33 | 55.94703 | -3.36635 | 107 ft | 2 kts | 89° |
| 2026-04-25 19:33 | 55.94703 | -3.36662 | 107 ft | 2 kts | 89° |
| 2026-04-25 19:33 | 55.94703 | -3.36689 | 107 ft | 2 kts | 89° |
| 2026-04-25 19:33 | 55.94702 | -3.36716 | 107 ft | 2 kts | 89° |
| 2026-04-25 19:34 | 55.94702 | -3.36744 | 107 ft | 2 kts | 89° |
| 2026-04-25 19:34 | 55.94702 | -3.36771 | 107 ft | 2 kts | 89° |
| 2026-04-25 19:34 | 55.94702 | -3.36775 | 107 ft | 0 kts | 89° |
| 2026-04-25 19:35 | 55.94702 | -3.36774 | 107 ft | 1 kts | 90° |
| 2026-04-25 19:36 | 55.94715 | -3.36747 | 105 ft | 5 kts | 34° |
| 2026-04-25 19:36 | 55.94749 | -3.36753 | 107 ft | 6 kts | 339° |
| 2026-04-25 19:36 | 55.94802 | -3.36780 | 107 ft | 10 kts | 353° |
| 2026-04-25 19:36 | 55.94869 | -3.36784 | 107 ft | 9 kts | 352° |
| 2026-04-25 19:37 | 55.94928 | -3.36855 | 107 ft | 11 kts | 296° |
| 2026-04-25 19:37 | 55.94895 | -3.36989 | 107 ft | 13 kts | 237° |
| 2026-04-25 19:37 | 55.94845 | -3.37138 | 106 ft | 15 kts | 239° |
| 2026-04-25 19:37 | 55.94787 | -3.37307 | 106 ft | 17 kts | 239° |
| 2026-04-25 19:38 | 55.94724 | -3.37495 | 107 ft | 16 kts | 239° |
| 2026-04-25 19:38 | 55.94663 | -3.37676 | 105 ft | 18 kts | 239° |
| 2026-04-25 19:38 | 55.94601 | -3.37857 | 106 ft | 17 kts | 238° |
| 2026-04-25 19:38 | 55.94535 | -3.38052 | 107 ft | 19 kts | 238° |
| 2026-04-25 19:39 | 55.94460 | -3.38268 | 107 ft | 21 kts | 238° |
| 2026-04-25 19:39 | 55.94404 | -3.38437 | 107 ft | 16 kts | 239° |
| 2026-04-25 19:39 | 55.94343 | -3.38618 | 107 ft | 18 kts | 239° |
| 2026-04-25 19:39 | 55.94293 | -3.38766 | 107 ft | 12 kts | 239° |
| 2026-04-25 19:40 | 55.94309 | -3.38890 | 107 ft | 9 kts | 327° |
| 2026-04-25 19:40 | 55.94370 | -3.38957 | 108 ft | 11 kts | 330° |
| 2026-04-25 19:40 | 55.94431 | -3.38931 | 109 ft | 9 kts | 59° |
| 2026-04-25 19:40 | 55.94499 | -3.38729 | 107 ft | 46 kts | 58° |
| 2026-04-25 19:41 | 55.94776 | -3.37912 | 109 ft | 106 kts | 58° |
| 2026-04-25 19:41 | 55.95242 | -3.36531 | 142 ft | 148 kts | 59° |
| 2026-04-25 19:41 | 55.95769 | -3.34947 | 670 ft | 150 kts | 60° |
| 2026-04-25 19:41 | 55.95967 | -3.34417 | 856 ft | 153 kts | 53° |
| 2026-04-25 19:42 | 55.97347 | -3.32292 | 1839 ft | 159 kts | 46° |
| 2026-04-25 19:42 | 55.98211 | -3.30889 | 2171 ft | 178 kts | 46° |
| 2026-04-25 19:42 | 55.99181 | -3.29287 | 2440 ft | 201 kts | 44° |
| 2026-04-25 19:42 | 56.00489 | -3.28111 | 2785 ft | 227 kts | 9° |
| 2026-04-25 19:43 | 56.02066 | -3.28711 | 3298 ft | 242 kts | 327° |
| 2026-04-25 19:43 | 56.03180 | -3.31031 | 3855 ft | 256 kts | 289° |
| 2026-04-25 19:43 | 56.03321 | -3.34186 | 4705 ft | 258 kts | 262° |
| 2026-04-25 19:43 | 56.02966 | -3.37346 | 5567 ft | 261 kts | 256° |
| 2026-04-25 19:44 | 56.02477 | -3.40467 | 6263 ft | 262 kts | 254° |
| 2026-04-25 19:44 | 56.01949 | -3.43604 | 7114 ft | 265 kts | 254° |
| 2026-04-25 19:44 | 56.01424 | -3.46785 | 7920 ft | 269 kts | 254° |
| 2026-04-25 19:44 | 56.00922 | -3.49977 | 8725 ft | 272 kts | 255° |
| 2026-04-25 19:45 | 56.00425 | -3.53270 | 9550 ft | 275 kts | 255° |
| 2026-04-25 19:45 | 55.99938 | -3.56589 | 10330 ft | 278 kts | 255° |
| 2026-04-25 19:45 | 55.99439 | -3.60045 | 10687 ft | 298 kts | 255° |
| 2026-04-25 19:45 | 55.98905 | -3.63773 | 10869 ft | 321 kts | 255° |
| 2026-04-25 19:46 | 55.98344 | -3.67708 | 11309 ft | 332 kts | 255° |
| 2026-04-25 19:46 | 55.97771 | -3.71737 | 11934 ft | 337 kts | 255° |
| 2026-04-25 19:46 | 55.97191 | -3.75811 | 12594 ft | 340 kts | 254° |
| 2026-04-25 19:46 | 55.96609 | -3.79868 | 13246 ft | 344 kts | 254° |
| 2026-04-25 19:47 | 55.96011 | -3.84016 | 13934 ft | 347 kts | 254° |
| 2026-04-25 19:47 | 55.95398 | -3.88209 | 14550 ft | 350 kts | 254° |
| 2026-04-25 19:47 | 55.94779 | -3.92429 | 15150 ft | 353 kts | 254° |
| 2026-04-25 19:47 | 55.94143 | -3.96679 | 15742 ft | 356 kts | 251° |
| 2026-04-25 19:48 | 55.93133 | -4.00709 | 16317 ft | 357 kts | 238° |
| 2026-04-25 19:48 | 55.91588 | -4.04187 | 16897 ft | 360 kts | 224° |
| 2026-04-25 19:48 | 55.89610 | -4.06950 | 17481 ft | 363 kts | 215° |
| 2026-04-25 19:48 | 55.87515 | -4.09516 | 18085 ft | 366 kts | 215° |
| 2026-04-25 19:49 | 55.85390 | -4.12064 | 18662 ft | 370 kts | 211° |
| 2026-04-25 19:49 | 55.84620 | -4.12797 | 18836 ft | 372 kts | 205° |
| 2026-04-25 19:49 | 55.80362 | -4.14045 | 19692 ft | 384 kts | 174° |
| 2026-04-25 19:49 | 55.77742 | -4.12921 | 20217 ft | 390 kts | 166° |
| 2026-04-25 19:50 | 55.72489 | -4.10132 | 21258 ft | 397 kts | 165° |
| 2026-04-25 19:50 | 55.69832 | -4.08700 | 21753 ft | 401 kts | 165° |
| 2026-04-25 19:50 | 55.67187 | -4.07279 | 22228 ft | 404 kts | 166° |
| 2026-04-25 19:51 | 55.64482 | -4.05837 | 22695 ft | 407 kts | 166° |
| 2026-04-25 19:51 | 55.61754 | -4.04395 | 23167 ft | 411 kts | 166° |
| 2026-04-25 19:51 | 55.59005 | -4.02951 | 23625 ft | 414 kts | 166° |
| 2026-04-25 19:51 | 55.56232 | -4.01500 | 24034 ft | 417 kts | 166° |
| 2026-04-25 19:52 | 55.53437 | -4.00040 | 24432 ft | 420 kts | 166° |
| 2026-04-25 19:52 | 55.50628 | -3.98568 | 24829 ft | 422 kts | 166° |
| 2026-04-25 19:52 | 55.47804 | -3.97086 | 25218 ft | 424 kts | 166° |
| 2026-04-25 19:52 | 55.44970 | -3.95604 | 25605 ft | 426 kts | 166° |
| 2026-04-25 19:53 | 55.42122 | -3.94118 | 25969 ft | 428 kts | 166° |
| 2026-04-25 19:53 | 55.39261 | -3.92628 | 26348 ft | 430 kts | 166° |
| 2026-04-25 19:53 | 55.36391 | -3.91134 | 26716 ft | 431 kts | 166° |
| 2026-04-25 19:53 | 55.33497 | -3.89633 | 27085 ft | 433 kts | 166° |
| 2026-04-25 19:54 | 55.30598 | -3.88128 | 27447 ft | 435 kts | 166° |
| 2026-04-25 19:54 | 55.27688 | -3.86624 | 27796 ft | 437 kts | 166° |
| 2026-04-25 19:54 | 55.24760 | -3.85117 | 28162 ft | 439 kts | 166° |
| 2026-04-25 19:54 | 55.23808 | -3.84628 | 28279 ft | 440 kts | 166° |
| 2026-04-25 19:55 | 55.18904 | -3.82104 | 28856 ft | 443 kts | 166° |
| 2026-04-25 19:55 | 55.15936 | -3.80575 | 29195 ft | 445 kts | 166° |
| 2026-04-25 19:55 | 55.12956 | -3.79042 | 29531 ft | 447 kts | 166° |
| 2026-04-25 19:55 | 55.09972 | -3.77507 | 29989 ft | 446 kts | 166° |
| 2026-04-25 19:56 | 55.07001 | -3.75982 | 30457 ft | 445 kts | 166° |
| 2026-04-25 19:56 | 55.04037 | -3.74463 | 30867 ft | 443 kts | 166° |
| 2026-04-25 19:56 | 55.01079 | -3.72947 | 31283 ft | 442 kts | 166° |
| 2026-04-25 19:56 | 54.98129 | -3.71437 | 31693 ft | 441 kts | 166° |
| 2026-04-25 19:57 | 54.95191 | -3.69939 | 32112 ft | 440 kts | 166° |
| 2026-04-25 19:57 | 54.92255 | -3.68449 | 32545 ft | 438 kts | 166° |
| 2026-04-25 19:57 | 54.89333 | -3.66969 | 32981 ft | 437 kts | 166° |
| 2026-04-25 19:57 | 54.86417 | -3.65495 | 33207 ft | 437 kts | 166° |
| 2026-04-25 19:58 | 54.83487 | -3.64018 | 33251 ft | 440 kts | 166° |
| 2026-04-25 19:58 | 54.77597 | -3.61050 | 33247 ft | 441 kts | 166° |
| 2026-04-25 19:59 | 54.71696 | -3.58076 | 33244 ft | 442 kts | 166° |
| 2026-04-25 19:59 | 54.65791 | -3.55114 | 33244 ft | 442 kts | 166° |
| 2026-04-25 20:00 | 54.59915 | -3.52180 | 33244 ft | 442 kts | 166° |
| 2026-04-25 20:00 | 54.53997 | -3.49228 | 33243 ft | 443 kts | 166° |
| 2026-04-25 20:01 | 54.45108 | -3.44802 | 33236 ft | 443 kts | 166° |
| 2026-04-25 20:01 | 54.39181 | -3.41866 | 33240 ft | 444 kts | 166° |
| 2026-04-25 20:02 | 54.33237 | -3.38941 | 33248 ft | 444 kts | 166° |
| 2026-04-25 20:02 | 54.27292 | -3.36025 | 33236 ft | 445 kts | 166° |
| 2026-04-25 20:03 | 54.21336 | -3.33103 | 33242 ft | 445 kts | 166° |
| 2026-04-25 20:03 | 54.15409 | -3.30201 | 33244 ft | 445 kts | 166° |
| 2026-04-25 20:04 | 54.09450 | -3.27289 | 33242 ft | 446 kts | 166° |
| 2026-04-25 20:04 | 54.03474 | -3.24393 | 33236 ft | 446 kts | 166° |
| 2026-04-25 20:05 | 53.97480 | -3.21581 | 33233 ft | 446 kts | 168° |
| 2026-04-25 20:05 | 53.91460 | -3.19262 | 33228 ft | 446 kts | 170° |
| 2026-04-25 20:06 | 53.85377 | -3.17112 | 33226 ft | 446 kts | 170° |
| 2026-04-25 20:06 | 53.79303 | -3.14889 | 33220 ft | 447 kts | 169° |
| 2026-04-25 20:07 | 53.73229 | -3.12582 | 33227 ft | 447 kts | 169° |
| 2026-04-25 20:07 | 53.67147 | -3.10281 | 33225 ft | 448 kts | 169° |
| 2026-04-25 20:08 | 53.61065 | -3.07996 | 33236 ft | 448 kts | 170° |
| 2026-04-25 20:08 | 53.54981 | -3.05729 | 33232 ft | 448 kts | 170° |
| 2026-04-25 20:09 | 53.48884 | -3.03456 | 33229 ft | 448 kts | 170° |
| 2026-04-25 20:09 | 53.42824 | -3.01197 | 33233 ft | 449 kts | 170° |
| 2026-04-25 20:10 | 53.36722 | -2.98940 | 33229 ft | 449 kts | 170° |
| 2026-04-25 20:10 | 53.31610 | -2.97060 | 33234 ft | 449 kts | 170° |
| 2026-04-25 20:11 | 53.25502 | -2.94821 | 33222 ft | 449 kts | 170° |
| 2026-04-25 20:11 | 53.22450 | -2.93702 | 33089 ft | 449 kts | 170° |
| 2026-04-25 20:11 | 53.19435 | -2.92589 | 32820 ft | 449 kts | 170° |
| 2026-04-25 20:12 | 53.16376 | -2.91461 | 32562 ft | 450 kts | 170° |
| 2026-04-25 20:12 | 53.13315 | -2.90339 | 32303 ft | 451 kts | 170° |
| 2026-04-25 20:12 | 53.10247 | -2.89224 | 32042 ft | 452 kts | 171° |
| 2026-04-25 20:12 | 53.08154 | -2.88657 | 31864 ft | 450 kts | 177° |
| 2026-04-25 20:13 | 53.04031 | -2.88579 | 31526 ft | 447 kts | 186° |
| 2026-04-25 20:13 | 53.00929 | -2.88858 | 31271 ft | 447 kts | 186° |
| 2026-04-25 20:13 | 52.97825 | -2.89124 | 31019 ft | 446 kts | 186° |
| 2026-04-25 20:13 | 52.94729 | -2.89386 | 30768 ft | 444 kts | 186° |
| 2026-04-25 20:14 | 52.91644 | -2.89650 | 30519 ft | 443 kts | 187° |
| 2026-04-25 20:14 | 52.88580 | -2.90030 | 30224 ft | 438 kts | 192° |
| 2026-04-25 20:14 | 52.85581 | -2.90721 | 29629 ft | 433 kts | 192° |
| 2026-04-25 20:14 | 52.82605 | -2.91417 | 29252 ft | 430 kts | 192° |
| 2026-04-25 20:15 | 52.76659 | -2.92828 | 29225 ft | 433 kts | 192° |
| 2026-04-25 20:15 | 52.70687 | -2.94164 | 29220 ft | 435 kts | 187° |
| 2026-04-25 20:16 | 52.64627 | -2.94668 | 28998 ft | 436 kts | 187° |
| 2026-04-25 20:16 | 52.61571 | -2.94919 | 27827 ft | 444 kts | 186° |
| 2026-04-25 20:16 | 52.58479 | -2.95175 | 26935 ft | 444 kts | 186° |
| 2026-04-25 20:17 | 52.55392 | -2.95426 | 26227 ft | 441 kts | 186° |
| 2026-04-25 20:17 | 52.52362 | -2.95667 | 25211 ft | 433 kts | 185° |
| 2026-04-25 20:17 | 52.49364 | -2.95909 | 24179 ft | 428 kts | 185° |
| 2026-04-25 20:17 | 52.46410 | -2.96150 | 23078 ft | 422 kts | 185° |
| 2026-04-25 20:18 | 52.43501 | -2.96390 | 22012 ft | 415 kts | 185° |
| 2026-04-25 20:18 | 52.40673 | -2.96625 | 21514 ft | 397 kts | 185° |
| 2026-04-25 20:18 | 52.37970 | -2.96849 | 21064 ft | 381 kts | 185° |
| 2026-04-25 20:18 | 52.35407 | -2.97057 | 20601 ft | 366 kts | 185° |
| 2026-04-25 20:19 | 52.32910 | -2.97255 | 20158 ft | 353 kts | 185° |
| 2026-04-25 20:19 | 52.30465 | -2.97453 | 19712 ft | 353 kts | 185° |
| 2026-04-25 20:19 | 52.28013 | -2.97660 | 19248 ft | 353 kts | 185° |
| 2026-04-25 20:19 | 52.25565 | -2.97868 | 18779 ft | 353 kts | 185° |
| 2026-04-25 20:20 | 52.23116 | -2.98074 | 18282 ft | 352 kts | 185° |
| 2026-04-25 20:20 | 52.20671 | -2.98276 | 17787 ft | 351 kts | 185° |
| 2026-04-25 20:20 | 52.18235 | -2.98472 | 17313 ft | 349 kts | 185° |
| 2026-04-25 20:20 | 52.15813 | -2.98662 | 16833 ft | 348 kts | 185° |
| 2026-04-25 20:21 | 52.13399 | -2.98855 | 16364 ft | 346 kts | 185° |
| 2026-04-25 20:21 | 52.10976 | -2.99055 | 16197 ft | 353 kts | 185° |
| 2026-04-25 20:21 | 52.08506 | -2.99262 | 16226 ft | 357 kts | 185° |
| 2026-04-25 20:21 | 52.06010 | -2.99467 | 15720 ft | 362 kts | 184° |
| 2026-04-25 20:22 | 52.03502 | -2.99667 | 15343 ft | 356 kts | 184° |
| 2026-04-25 20:22 | 52.01874 | -2.99795 | 15249 ft | 353 kts | 184° |
| 2026-04-25 20:22 | 51.98628 | -3.00053 | 15247 ft | 353 kts | 184° |
| 2026-04-25 20:22 | 51.96170 | -3.00113 | 15264 ft | 354 kts | 177° |
| 2026-04-25 20:23 | 51.93741 | -2.99437 | 15269 ft | 356 kts | 165° |
| 2026-04-25 20:23 | 51.91400 | -2.98103 | 15277 ft | 357 kts | 161° |
| 2026-04-25 20:23 | 51.89079 | -2.96705 | 15033 ft | 356 kts | 161° |
| 2026-04-25 20:23 | 51.86724 | -2.95294 | 14018 ft | 362 kts | 160° |
| 2026-04-25 20:24 | 51.84360 | -2.93882 | 13141 ft | 355 kts | 160° |
| 2026-04-25 20:24 | 51.82119 | -2.92540 | 12889 ft | 343 kts | 160° |
| 2026-04-25 20:24 | 51.79888 | -2.91196 | 12661 ft | 342 kts | 160° |
| 2026-04-25 20:24 | 51.77657 | -2.89856 | 12421 ft | 340 kts | 160° |
| 2026-04-25 20:25 | 51.75443 | -2.88530 | 12110 ft | 339 kts | 160° |
| 2026-04-25 20:25 | 51.73233 | -2.87214 | 11785 ft | 337 kts | 160° |
| 2026-04-25 20:25 | 51.71033 | -2.85907 | 11462 ft | 335 kts | 160° |
| 2026-04-25 20:25 | 51.68853 | -2.84616 | 11125 ft | 333 kts | 160° |
| 2026-04-25 20:26 | 51.66687 | -2.83339 | 10759 ft | 331 kts | 160° |
| 2026-04-25 20:26 | 51.64564 | -2.82091 | 10398 ft | 326 kts | 160° |
| 2026-04-25 20:26 | 51.62443 | -2.80849 | 10016 ft | 322 kts | 160° |
| 2026-04-25 20:26 | 51.60343 | -2.79623 | 9617 ft | 319 kts | 160° |
| 2026-04-25 20:27 | 51.58288 | -2.78425 | 9207 ft | 308 kts | 160° |
| 2026-04-25 20:27 | 51.56261 | -2.77724 | 8768 ft | 292 kts | 181° |
| 2026-04-25 20:27 | 51.54338 | -2.78432 | 8387 ft | 282 kts | 207° |
| 2026-04-25 20:27 | 51.52672 | -2.80078 | 8026 ft | 281 kts | 214° |
| 2026-04-25 20:28 | 51.51065 | -2.81860 | 7643 ft | 281 kts | 215° |
| 2026-04-25 20:28 | 51.49453 | -2.83670 | 7273 ft | 282 kts | 215° |
| 2026-04-25 20:28 | 51.47948 | -2.85688 | 6906 ft | 282 kts | 224° |
| 2026-04-25 20:28 | 51.46546 | -2.87901 | 6465 ft | 282 kts | 225° |
| 2026-04-25 20:29 | 51.45176 | -2.90105 | 5953 ft | 276 kts | 225° |
| 2026-04-25 20:29 | 51.43857 | -2.92242 | 5449 ft | 271 kts | 225° |
| 2026-04-25 20:29 | 51.42547 | -2.94374 | 4939 ft | 266 kts | 225° |
| 2026-04-25 20:29 | 51.41259 | -2.96474 | 4434 ft | 262 kts | 225° |
| 2026-04-25 20:30 | 51.39876 | -2.98331 | 3924 ft | 257 kts | 206° |
| 2026-04-25 20:30 | 51.38188 | -2.98927 | 3569 ft | 243 kts | 170° |
| 2026-04-25 20:30 | 51.36783 | -2.97807 | 3501 ft | 218 kts | 129° |
| 2026-04-25 20:30 | 51.36279 | -2.95703 | 3344 ft | 201 kts | 84° |
| 2026-04-25 20:31 | 51.36803 | -2.93754 | 3154 ft | 188 kts | 52° |
| 2026-04-25 20:31 | 51.37415 | -2.91991 | 2883 ft | 177 kts | 82° |
| 2026-04-25 20:31 | 51.37467 | -2.90090 | 2697 ft | 167 kts | 84° |
| 2026-04-25 20:31 | 51.37581 | -2.88277 | 2489 ft | 161 kts | 85° |
| 2026-04-25 20:32 | 51.37672 | -2.86528 | 2272 ft | 154 kts | 85° |
| 2026-04-25 20:32 | 51.37746 | -2.84878 | 2080 ft | 146 kts | 86° |
| 2026-04-25 20:32 | 51.37814 | -2.83268 | 1882 ft | 144 kts | 86° |
| 2026-04-25 20:32 | 51.37877 | -2.81698 | 1693 ft | 143 kts | 86° |
| 2026-04-25 20:33 | 51.37934 | -2.80114 | 1490 ft | 142 kts | 87° |
| 2026-04-25 20:33 | 51.37997 | -2.78538 | 1312 ft | 141 kts | 85° |
| 2026-04-25 20:33 | 51.38078 | -2.76976 | 1141 ft | 141 kts | 85° |
| 2026-04-25 20:33 | 51.38121 | -2.75922 | 995 ft | 140 kts | 86° |
| 2026-04-25 20:34 | 51.38194 | -2.73880 | 725 ft | 138 kts | 85° |
| 2026-04-25 20:34 | 51.38251 | -2.72379 | 628 ft | 125 kts | 85° |
| 2026-04-25 20:34 | 51.38291 | -2.71297 | 602 ft | 57 kts | 86° |
| 2026-04-25 20:34 | 51.38307 | -2.70903 | 604 ft | 25 kts | 87° |
| 2026-04-25 20:35 | 51.38351 | -2.70753 | 610 ft | 10 kts | 21° |
| 2026-04-25 20:35 | 51.38403 | -2.70723 | 618 ft | 7 kts | 19° |
| 2026-04-25 20:35 | 51.38420 | -2.70714 | 610 ft | 0 kts | 18° |
| 2026-04-25 20:36 | 51.38442 | -2.70710 | 611 ft | 6 kts | 355° |
| 2026-04-25 20:37 | 51.38470 | -2.70766 | 614 ft | 8 kts | 275° |
| 2026-04-25 20:37 | 51.38466 | -2.70878 | 613 ft | 10 kts | 266° |
| 2026-04-25 20:37 | 51.38462 | -2.70972 | 623 ft | 8 kts | 266° |
| 2026-04-25 20:37 | 51.38498 | -2.71014 | 622 ft | 9 kts | 356° |
| 2026-04-25 20:38 | 51.38537 | -2.71016 | 612 ft | 4 kts | 356° |
| 2026-04-25 20:38 | 51.38551 | -2.71018 | 618 ft | 0 kts | 356° |